createdAt,value
2022-08-18T00:01:33.369Z,18.79
2022-08-18T00:04:03.571Z,18.81
2022-08-18T00:06:41.102Z,18.80
2022-08-18T00:09:09.719Z,18.84
2022-08-18T00:11:42.823Z,18.74
2022-08-18T00:14:22.168Z,18.68
2022-08-18T00:16:51.813Z,18.68
2022-08-18T00:19:19.314Z,18.64
2022-08-18T00:21:46.513Z,18.62
2022-08-18T00:24:13.770Z,18.66
2022-08-18T00:26:40.780Z,18.59
2022-08-18T00:29:08.543Z,18.64
2022-08-18T00:31:35.974Z,18.56
2022-08-18T00:34:02.946Z,18.42
2022-08-18T00:36:32.458Z,18.31
2022-08-18T00:39:02.594Z,18.41
2022-08-18T00:41:29.647Z,18.38
2022-08-18T00:43:58.716Z,18.36
2022-08-18T00:46:29.182Z,18.40
2022-08-18T00:48:56.785Z,18.34
2022-08-18T00:51:31.876Z,18.30
2022-08-18T00:54:06.032Z,18.25
2022-08-18T00:56:40.157Z,18.29
2022-08-18T00:59:38.382Z,18.35
2022-08-18T01:02:08.185Z,18.45
2022-08-18T01:04:45.590Z,18.23
2022-08-18T01:07:22.634Z,18.20
2022-08-18T01:09:53.966Z,18.12
2022-08-18T01:12:20.868Z,18.00
2022-08-18T01:15:08.906Z,17.94
2022-08-18T01:18:15.047Z,17.99
2022-08-18T01:21:40.254Z,18.01
2022-08-18T01:24:09.493Z,18.06
2022-08-18T01:26:44.939Z,18.07
2022-08-18T01:29:18.926Z,18.11
2022-08-18T01:31:55.686Z,18.14
2022-08-18T01:34:25.353Z,18.19
2022-08-18T01:36:53.049Z,18.23
2022-08-18T01:40:59.719Z,18.32
2022-08-18T01:42:07.843Z,18.33
2022-08-18T01:44:35.077Z,18.26
2022-08-18T01:47:02.701Z,18.22
2022-08-18T01:49:29.671Z,18.21
2022-08-18T01:51:56.589Z,18.14
2022-08-18T01:54:23.582Z,18.12
2022-08-18T01:56:52.843Z,18.12
2022-08-18T01:59:20.565Z,18.12
2022-08-18T02:01:53.146Z,18.07
2022-08-18T02:04:35.112Z,18.02
2022-08-18T02:07:07.285Z,17.97
2022-08-18T02:09:34.637Z,17.98
2022-08-18T02:12:01.521Z,17.94
2022-08-18T02:14:31.581Z,17.95
2022-08-18T02:17:02.183Z,17.89
2022-08-18T02:19:34.694Z,17.81
2022-08-18T02:22:02.276Z,17.74
2022-08-18T02:24:29.354Z,17.83
2022-08-18T02:26:56.588Z,17.79
2022-08-18T02:29:23.576Z,17.78
2022-08-18T02:31:50.549Z,17.69
2022-08-18T02:34:17.886Z,17.72
2022-08-18T02:36:44.764Z,17.60
2022-08-18T02:39:11.840Z,17.68
2022-08-18T02:41:38.660Z,17.61
2022-08-18T02:44:07.605Z,17.53
2022-08-18T02:46:34.976Z,17.58
2022-08-18T02:49:02.456Z,17.47
2022-08-18T02:51:29.528Z,17.61
2022-08-18T02:53:59.497Z,17.40
2022-08-18T02:56:41.508Z,17.41
2022-08-18T02:59:24.581Z,17.55
2022-08-18T03:01:53.566Z,17.42
2022-08-18T03:04:28.568Z,17.47
2022-08-18T03:06:57.637Z,17.50
2022-08-18T03:09:24.460Z,17.49
2022-08-18T03:11:52.129Z,17.31
2022-08-18T03:14:19.134Z,17.32
2022-08-18T03:16:54.047Z,17.37
2022-08-18T03:19:23.633Z,17.38
2022-08-18T03:21:51.288Z,17.44
2022-08-18T03:24:22.448Z,17.29
2022-08-18T03:26:50.041Z,17.37
2022-08-18T03:29:17.066Z,17.28
2022-08-18T03:31:44.891Z,17.34
2022-08-18T03:34:15.053Z,17.39
2022-08-18T03:36:42.311Z,17.26
2022-08-18T03:39:11.767Z,17.25
2022-08-18T03:41:57.516Z,17.33
2022-08-18T03:44:37.276Z,17.31
2022-08-18T03:47:07.942Z,17.29
2022-08-18T03:49:35.819Z,17.37
2022-08-18T03:52:03.076Z,17.41
2022-08-18T03:54:32.606Z,17.39
2022-08-18T03:57:00.739Z,17.24
2022-08-18T03:59:28.998Z,17.33
2022-08-18T04:01:56.226Z,17.44
2022-08-18T04:04:26.535Z,17.28
2022-08-18T04:06:58.604Z,17.34
2022-08-18T04:09:28.491Z,17.41
2022-08-18T04:11:56.644Z,17.44
2022-08-18T04:14:30.196Z,17.23
2022-08-18T04:16:58.388Z,17.38
2022-08-18T04:19:26.810Z,17.41
2022-08-18T04:21:58.442Z,17.36
2022-08-18T04:24:28.114Z,17.38
2022-08-18T04:26:56.767Z,17.39
2022-08-18T04:29:24.423Z,17.52
2022-08-18T04:31:52.248Z,17.52
2022-08-18T04:34:20.769Z,17.49
2022-08-18T04:36:48.449Z,17.58
2022-08-18T04:39:15.608Z,17.60
2022-08-18T04:41:43.968Z,17.57
2022-08-18T04:44:12.772Z,17.64
2022-08-18T04:46:47.888Z,17.61
2022-08-18T04:49:16.500Z,17.57
2022-08-18T04:52:36.296Z,17.57
2022-08-18T04:54:52.802Z,17.55
2022-08-18T04:57:20.974Z,17.58
2022-08-18T04:59:50.465Z,17.56
2022-08-18T05:02:18.984Z,17.59
2022-08-18T05:04:49.036Z,17.68
2022-08-18T05:07:19.706Z,17.71
2022-08-18T05:09:47.160Z,17.72
2022-08-18T05:12:15.291Z,17.75
2022-08-18T05:14:44.812Z,17.81
2022-08-18T05:17:12.993Z,17.88
2022-08-18T05:19:44.148Z,17.92
2022-08-18T05:22:14.824Z,17.96
2022-08-18T05:24:43.031Z,17.90
2022-08-18T05:27:10.119Z,17.88
2022-08-18T05:29:45.501Z,17.87
2022-08-18T05:32:40.965Z,17.81
2022-08-18T05:35:05.685Z,17.81
2022-08-18T05:37:57.504Z,17.90
2022-08-18T05:40:27.610Z,17.93
2022-08-18T05:42:56.572Z,18.02
2022-08-18T05:45:23.698Z,17.99
2022-08-18T05:47:51.754Z,18.01
2022-08-18T05:50:21.049Z,18.03
2022-08-18T05:52:53.199Z,18.03
2022-08-18T05:55:48.055Z,18.07
2022-08-18T05:58:33.409Z,18.10
2022-08-18T06:01:30.861Z,18.18
2022-08-18T06:04:26.176Z,18.23
2022-08-18T06:06:53.630Z,18.38
2022-08-18T06:09:26.625Z,18.43
2022-08-18T06:11:59.106Z,18.44
2022-08-18T06:14:26.774Z,18.55
2022-08-18T06:16:57.224Z,18.64
2022-08-18T06:20:15.246Z,18.78
2022-08-18T06:23:04.040Z,18.85
2022-08-18T06:25:55.621Z,18.78
2022-08-18T06:28:22.420Z,18.90
2022-08-18T06:31:06.329Z,18.88
2022-08-18T06:34:01.759Z,19.02
2022-08-18T06:36:40.778Z,19.13
2022-08-18T06:39:24.585Z,19.31
2022-08-18T06:41:51.768Z,19.44
2022-08-18T06:44:31.738Z,19.50
2022-08-18T06:47:05.777Z,19.54
2022-08-18T06:49:56.936Z,19.68
2022-08-18T06:52:51.665Z,19.77
2022-08-18T06:55:20.215Z,19.80
2022-08-18T06:58:00.722Z,19.85
2022-08-18T07:00:32.592Z,19.93
2022-08-18T07:03:11.889Z,19.91
2022-08-18T07:06:06.739Z,19.79
2022-08-18T07:08:38.577Z,19.86
2022-08-18T07:11:14.659Z,19.84
2022-08-18T07:13:44.680Z,19.84
2022-08-18T07:16:47.001Z,19.95
2022-08-18T07:19:16.632Z,19.98
2022-08-18T07:21:44.965Z,19.97
2022-08-18T07:24:26.738Z,20.02
2022-08-18T07:27:10.656Z,20.04
2022-08-18T07:30:04.335Z,20.13
2022-08-18T07:32:38.142Z,20.23
2022-08-18T07:35:08.665Z,20.27
2022-08-18T07:37:50.668Z,20.35
2022-08-18T07:40:37.052Z,20.45
2022-08-18T07:43:17.376Z,20.54
2022-08-18T07:45:46.933Z,20.68
2022-08-18T07:48:41.582Z,20.65
2022-08-18T07:51:20.877Z,20.75
2022-08-18T07:54:48.850Z,20.77
2022-08-18T07:57:44.197Z,20.86
2022-08-18T08:00:57.468Z,20.87
2022-08-18T08:04:05.450Z,20.90
2022-08-18T08:06:39.901Z,20.96
2022-08-18T08:09:30.240Z,21.04
2022-08-18T08:12:01.563Z,21.07
2022-08-18T08:14:43.679Z,21.15
2022-08-18T08:17:34.094Z,21.24
2022-08-18T08:20:54.975Z,21.28
2022-08-18T08:23:35.136Z,21.36
2022-08-18T08:26:23.887Z,21.38
2022-08-18T08:29:38.920Z,21.44
2022-08-18T08:32:22.224Z,21.41
2022-08-18T08:34:57.573Z,21.39
2022-08-18T08:37:42.346Z,21.39
2022-08-18T08:40:28.707Z,21.41
2022-08-18T08:43:01.483Z,21.42
2022-08-18T08:45:37.969Z,21.33
2022-08-18T08:48:15.778Z,21.30
2022-08-18T08:50:49.830Z,21.28
2022-08-18T08:53:35.227Z,21.32
2022-08-18T08:56:08.167Z,21.35
2022-08-18T08:58:40.804Z,21.34
2022-08-18T09:01:12.212Z,21.24
2022-08-18T09:03:57.381Z,21.11
2022-08-18T09:07:21.420Z,21.13
2022-08-18T09:10:04.706Z,21.11
2022-08-18T09:12:36.790Z,21.17
2022-08-18T09:15:42.369Z,21.18
2022-08-18T09:18:44.235Z,21.18
2022-08-18T09:21:31.345Z,21.13
2022-08-18T09:24:18.595Z,21.07
2022-08-18T09:42:50.710Z,20.92
2022-08-18T09:45:43.121Z,21.03
2022-08-18T09:48:44.104Z,21.11
2022-08-18T09:51:34.770Z,21.00
2022-08-18T09:54:12.877Z,20.86
2022-08-18T09:57:19.388Z,21.00
2022-08-18T09:59:49.188Z,20.94
2022-08-18T10:02:50.135Z,20.95
2022-08-18T10:05:37.592Z,20.96
2022-08-18T10:08:27.828Z,21.10
2022-08-18T10:11:13.932Z,21.10
2022-08-18T10:14:10.184Z,21.19
2022-08-18T10:17:13.493Z,21.31
2022-08-18T10:20:03.987Z,21.49
2022-08-18T10:22:43.583Z,21.57
2022-08-18T10:25:22.797Z,21.57
2022-08-18T10:27:58.375Z,21.62
2022-08-18T10:30:56.644Z,21.71
2022-08-18T10:33:59.482Z,21.97
2022-08-18T10:36:47.478Z,22.10
2022-08-18T10:39:19.484Z,22.18
2022-08-18T10:41:58.015Z,22.21
2022-08-18T10:44:30.899Z,22.17
2022-08-18T10:46:59.632Z,22.12
2022-08-18T10:49:29.311Z,22.18
2022-08-18T10:52:09.163Z,22.24
2022-08-18T10:58:21.627Z,22.32
2022-08-18T11:01:30.967Z,22.29
2022-08-18T11:04:27.500Z,22.42
2022-08-18T11:07:10.894Z,22.22
2022-08-18T11:09:41.519Z,22.28
2022-08-18T11:12:11.751Z,22.35
2022-08-18T11:14:51.968Z,22.36
2022-08-18T11:17:28.552Z,22.44
2022-08-18T11:19:56.561Z,22.56
2022-08-18T11:22:34.407Z,22.49
2022-08-18T11:25:07.730Z,22.52
2022-08-18T11:27:46.849Z,22.49
2022-08-18T11:30:17.892Z,22.57
2022-08-18T11:32:52.103Z,22.38
2022-08-18T11:35:24.872Z,22.43
2022-08-18T11:38:01.171Z,22.61
2022-08-18T11:41:10.517Z,22.71
2022-08-18T11:43:40.856Z,22.81
2022-08-18T11:46:30.584Z,23.00
2022-08-18T11:49:16.123Z,22.87
2022-08-18T11:52:03.787Z,22.83
2022-08-18T11:54:50.542Z,22.55
2022-08-18T11:58:05.870Z,22.79
2022-08-18T12:01:09.772Z,22.75
2022-08-18T12:03:46.775Z,22.81
2022-08-18T12:06:20.027Z,22.75
2022-08-18T12:08:59.029Z,22.84
2022-08-18T12:11:31.190Z,22.87
2022-08-18T12:14:32.184Z,22.99
2022-08-18T12:17:02.376Z,23.03
2022-08-18T12:22:35.192Z,23.10
2022-08-18T12:25:04.810Z,23.05
2022-08-18T12:27:39.233Z,23.24
2022-08-18T12:30:16.765Z,23.31
2022-08-18T12:35:31.730Z,23.43
2022-08-18T12:38:11.447Z,23.50
2022-08-18T12:40:41.782Z,23.45
2022-08-18T12:43:09.454Z,23.62
2022-08-18T12:45:41.964Z,23.63
2022-08-18T12:48:09.855Z,23.64
2022-08-18T12:50:50.213Z,23.62
2022-08-18T12:53:29.676Z,23.73
2022-08-18T12:56:26.268Z,24.02
2022-08-18T12:58:54.512Z,24.00
2022-08-18T13:01:23.595Z,23.77
2022-08-18T13:04:03.521Z,24.01
2022-08-18T13:06:46.997Z,23.95
2022-08-18T13:09:42.660Z,23.96
2022-08-18T13:12:20.216Z,23.91
2022-08-18T13:14:48.744Z,23.84
2022-08-18T13:17:29.425Z,24.05
2022-08-18T13:20:02.025Z,24.22
2022-08-18T13:22:32.649Z,24.09
2022-08-18T13:25:05.483Z,23.99
2022-08-18T13:27:35.454Z,24.08
2022-08-18T13:30:31.249Z,24.12
2022-08-18T13:33:02.545Z,24.16
2022-08-18T13:35:38.221Z,24.27
2022-08-18T13:38:20.819Z,24.17
2022-08-18T13:40:54.930Z,24.24
2022-08-18T13:43:30.730Z,24.36
2022-08-18T13:45:57.535Z,24.18
2022-08-18T13:48:25.829Z,23.83
2022-08-18T13:50:58.657Z,24.00
2022-08-18T13:53:28.797Z,23.89
2022-08-18T13:56:00.414Z,24.10
2022-08-18T13:58:31.799Z,24.10
2022-08-18T14:01:22.803Z,24.15
2022-08-18T14:03:50.377Z,24.25
2022-08-18T14:06:22.911Z,24.35
2022-08-18T14:08:53.338Z,24.46
2022-08-18T14:11:33.266Z,24.52
2022-08-18T14:14:02.144Z,24.35
2022-08-18T14:16:29.646Z,24.54
2022-08-18T14:19:17.718Z,24.39
2022-08-18T14:22:11.486Z,24.15
2022-08-18T14:24:59.080Z,23.91
2022-08-18T14:27:35.345Z,24.01
2022-08-18T14:30:08.847Z,24.27
2022-08-18T14:32:36.996Z,24.62
2022-08-18T14:35:33.478Z,24.75
2022-08-18T14:38:10.017Z,24.85
2022-08-18T14:40:43.001Z,25.23
2022-08-18T14:43:17.461Z,25.19
2022-08-18T14:45:51.438Z,25.17
2022-08-18T14:48:23.921Z,25.27
2022-08-18T14:50:56.317Z,25.25
2022-08-18T14:53:27.382Z,25.07
2022-08-18T14:55:56.426Z,24.85
2022-08-18T14:58:29.138Z,24.62
2022-08-18T15:00:59.860Z,24.66
2022-08-18T15:03:31.533Z,24.42
2022-08-18T15:06:00.600Z,24.47
2022-08-18T15:08:28.349Z,24.41
2022-08-18T15:10:56.241Z,24.26
2022-08-18T15:13:26.504Z,24.19
2022-08-18T15:16:02.080Z,24.40
2022-08-18T15:18:31.365Z,24.40
2022-08-18T15:21:19.629Z,24.44
2022-08-18T15:24:21.467Z,24.33
2022-08-18T15:26:57.997Z,24.35
2022-08-18T15:29:28.978Z,24.40
2022-08-18T15:32:02.338Z,24.46
2022-08-18T15:34:46.455Z,24.61
2022-08-18T15:37:19.744Z,24.37
2022-08-18T15:39:55.637Z,24.38
2022-08-18T15:42:23.826Z,24.43
2022-08-18T15:44:52.688Z,24.43
2022-08-18T15:47:21.313Z,24.19
2022-08-18T15:49:48.695Z,24.35
2022-08-18T15:52:19.766Z,24.30
2022-08-18T15:54:50.425Z,24.33
2022-08-18T15:57:35.987Z,24.30
2022-08-18T16:00:06.284Z,24.21
2022-08-18T16:02:34.080Z,24.16
2022-08-18T16:05:10.425Z,24.28
2022-08-18T16:07:53.622Z,23.96
2022-08-18T16:10:22.191Z,23.82
2022-08-18T16:12:49.968Z,23.93
2022-08-18T16:15:22.144Z,24.02
2022-08-18T16:17:55.392Z,23.99
2022-08-18T16:20:26.366Z,24.03
2022-08-18T16:22:54.391Z,23.89
2022-08-18T16:25:21.695Z,23.83
2022-08-18T16:27:48.525Z,23.71
2022-08-18T16:30:18.843Z,23.81
2022-08-18T16:32:47.120Z,23.70
2022-08-18T16:35:15.371Z,23.82
2022-08-18T16:37:43.363Z,23.71
2022-08-18T16:40:11.512Z,23.72
2022-08-18T16:42:38.507Z,23.49
2022-08-18T16:45:09.829Z,23.47
2022-08-18T16:47:41.965Z,23.38
2022-08-18T16:50:11.552Z,23.48
2022-08-18T16:52:39.226Z,23.53
2022-08-18T16:55:07.538Z,23.60
2022-08-18T16:57:55.490Z,23.59
2022-08-18T17:00:42.604Z,23.53
2022-08-18T17:03:33.040Z,23.33
2022-08-18T17:06:05.457Z,23.32
2022-08-18T17:08:34.375Z,23.26
2022-08-18T17:11:09.749Z,23.18
2022-08-18T17:13:40.602Z,23.23
2022-08-18T17:16:07.957Z,23.39
2022-08-18T17:18:35.440Z,23.20
2022-08-18T17:21:04.629Z,23.26
2022-08-18T17:23:32.004Z,23.17
2022-08-18T17:25:59.232Z,23.19
2022-08-18T17:28:33.193Z,23.39
2022-08-18T17:31:02.632Z,23.28
2022-08-18T17:33:32.090Z,23.34
2022-08-18T17:36:04.102Z,23.14
2022-08-18T17:38:57.521Z,23.19
2022-08-18T17:41:25.546Z,23.24
2022-08-18T17:43:55.595Z,23.32
2022-08-18T17:46:28.937Z,23.29
2022-08-18T17:49:06.864Z,23.30
2022-08-18T17:51:47.087Z,23.20
2022-08-18T17:54:30.084Z,23.26
2022-08-18T17:57:05.813Z,23.18
2022-08-18T17:59:42.792Z,23.32
2022-08-18T18:02:29.316Z,23.32
2022-08-18T18:04:58.939Z,23.34
2022-08-18T18:07:33.296Z,23.32
2022-08-18T18:10:09.920Z,23.39
2022-08-18T18:12:38.221Z,23.25
2022-08-18T18:15:09.093Z,23.05
2022-08-18T18:17:39.050Z,23.00
2022-08-18T18:20:30.200Z,23.00
2022-08-18T18:25:43.989Z,22.96
2022-08-18T18:28:34.108Z,23.01
2022-08-18T18:31:25.371Z,23.00
2022-08-18T18:33:58.798Z,22.90
2022-08-18T18:36:40.309Z,22.98
2022-08-18T18:39:19.855Z,22.75
2022-08-18T18:41:52.492Z,22.66
2022-08-18T18:44:30.880Z,22.75
2022-08-18T18:47:14.858Z,22.67
2022-08-18T18:49:59.661Z,22.70
2022-08-18T18:52:48.310Z,22.59
2022-08-18T18:55:23.973Z,22.59
2022-08-18T18:58:03.055Z,22.49
2022-08-18T19:00:38.297Z,22.44
2022-08-18T19:03:07.966Z,22.43
2022-08-18T19:05:53.508Z,22.30
2022-08-18T19:08:40.934Z,22.27
2022-08-18T19:11:39.159Z,22.22
2022-08-18T19:14:11.321Z,22.26
2022-08-18T19:17:09.551Z,22.19
2022-08-18T19:19:51.855Z,22.16
2022-08-18T19:22:27.901Z,22.15
2022-08-18T19:25:00.394Z,22.18
2022-08-18T19:27:32.625Z,22.13
2022-08-18T19:30:07.008Z,21.96
2022-08-18T19:32:44.013Z,22.04
2022-08-18T19:35:19.645Z,22.07
2022-08-18T19:38:14.404Z,22.05
2022-08-18T19:40:50.704Z,22.02
2022-08-18T19:43:46.003Z,21.99
2022-08-18T19:46:24.888Z,22.04
2022-08-18T19:49:20.090Z,22.03
2022-08-18T19:51:49.505Z,22.01
2022-08-18T19:54:53.149Z,21.97
2022-08-18T19:57:55.310Z,21.92
2022-08-18T20:00:37.853Z,21.85
2022-08-18T20:03:29.466Z,21.87
2022-08-18T20:06:39.016Z,21.81
2022-08-18T20:09:14.626Z,21.81
2022-08-18T20:11:52.810Z,21.72
2022-08-18T20:14:20.260Z,21.72
2022-08-18T20:25:43.887Z,21.64
2022-08-18T20:28:11.058Z,21.62
2022-08-18T20:31:10.664Z,21.55
2022-08-18T20:33:43.656Z,21.50
2022-08-18T20:36:38.293Z,21.48
2022-08-18T20:39:30.811Z,21.46
2022-08-18T20:41:59.339Z,21.33
2022-08-18T20:44:49.977Z,21.35
2022-08-18T20:47:53.083Z,21.36
2022-08-18T20:50:42.410Z,21.06
2022-08-18T20:53:49.854Z,21.22
2022-08-18T20:56:43.823Z,21.15
2022-08-18T20:59:21.053Z,21.04
2022-08-18T21:01:59.815Z,21.12
2022-08-18T21:04:51.439Z,21.12
2022-08-18T21:07:36.544Z,21.09
2022-08-18T21:10:25.078Z,20.99
2022-08-18T21:12:54.398Z,21.09
2022-08-18T21:15:24.620Z,21.16
2022-08-18T21:18:00.181Z,21.08
2022-08-18T21:20:28.126Z,21.05
2022-08-18T21:23:15.065Z,20.96
2022-08-18T21:25:52.923Z,20.94
2022-08-18T21:28:22.019Z,20.85
2022-08-18T21:31:43.796Z,20.91
2022-08-18T21:34:18.733Z,20.89
2022-08-18T21:36:52.035Z,20.74
2022-08-18T21:39:20.078Z,20.75
2022-08-18T21:41:49.776Z,20.71
2022-08-18T21:44:23.339Z,20.70
2022-08-18T21:46:50.898Z,20.66
2022-08-18T21:49:26.987Z,20.60
2022-08-18T21:51:54.533Z,20.63
2022-08-18T21:54:24.296Z,20.72
2022-08-18T21:57:23.546Z,20.75
2022-08-18T22:00:20.783Z,20.59
2022-08-18T22:02:52.278Z,20.71
2022-08-18T22:05:58.037Z,20.71
2022-08-18T22:08:21.907Z,20.95
2022-08-18T22:11:59.601Z,20.94
2022-08-18T22:14:54.377Z,20.80
2022-08-18T22:17:37.594Z,20.82
2022-08-18T22:20:37.328Z,20.82
2022-08-18T22:23:32.011Z,20.85
2022-08-18T22:26:16.370Z,20.88
2022-08-18T22:29:06.753Z,20.80
2022-08-18T22:31:39.073Z,20.76
2022-08-18T22:34:11.922Z,20.73
2022-08-18T22:36:41.584Z,20.72
2022-08-18T22:39:11.437Z,20.69
2022-08-18T22:41:39.583Z,20.77
2022-08-18T22:44:07.184Z,20.67
2022-08-18T22:46:35.013Z,20.65
2022-08-18T22:49:03.220Z,20.62
2022-08-18T22:51:33.514Z,20.58
2022-08-18T22:54:00.481Z,20.40
2022-08-18T22:56:34.543Z,20.45
2022-08-18T22:59:13.819Z,20.51
2022-08-18T23:01:46.651Z,20.23
2022-08-18T23:04:16.115Z,20.20
2022-08-18T23:06:51.449Z,20.25
2022-08-18T23:09:20.531Z,20.26
2022-08-18T23:11:47.308Z,20.16
2022-08-18T23:14:14.566Z,20.29
2022-08-18T23:16:45.601Z,20.31
2022-08-18T23:19:14.408Z,20.31
2022-08-18T23:21:43.727Z,20.40
2022-08-18T23:24:12.637Z,20.40
2022-08-18T23:26:40.545Z,20.42
2022-08-18T23:29:11.798Z,20.27
2022-08-18T23:31:41.521Z,20.36
2022-08-18T23:34:09.683Z,20.36
2022-08-18T23:36:41.293Z,20.39
2022-08-18T23:39:10.656Z,20.33
2022-08-18T23:41:38.411Z,20.24
2022-08-18T23:44:06.838Z,20.24
2022-08-18T23:46:34.287Z,20.22
2022-08-18T23:49:02.639Z,20.28
2022-08-18T23:51:39.189Z,20.29
2022-08-18T23:54:08.981Z,20.25
2022-08-18T23:56:37.056Z,20.30
2022-08-18T23:59:06.557Z,20.27
